sensor_id;sensor_type;location;lat;lon;timestamp;P1;P2;P0
55754;PMS5003;41674;52.290;-1.474;2023-04-15T00:01:29;14;12;
55754;PMS5003;41674;52.290;-1.474;2023-04-15T00:03:58;11;9;
55754;PMS5003;41674;52.290;-1.474;2023-04-15T00:06:28;11;11;
55754;PMS5003;41674;52.290;-1.474;2023-04-15T00:08:57;14;12;
55754;PMS5003;41674;52.290;-1.474;2023-04-15T00:11:28;11;11;
55754;PMS5003;41674;52.290;-1.474;2023-04-15T00:13:57;16;13;
55754;PMS5003;41674;52.290;-1.474;2023-04-15T00:16:26;16;16;
55754;PMS5003;41674;52.290;-1.474;2023-04-15T00:18:55;17;15;
55754;PMS5003;41674;52.290;-1.474;2023-04-15T00:21:25;16;14;
55754;PMS5003;41674;52.290;-1.474;2023-04-15T00:23:55;13;12;
55754;PMS5003;41674;52.290;-1.474;2023-04-15T00:26:24;12;11;
55754;PMS5003;41674;52.290;-1.474;2023-04-15T00:28:55;18;16;
55754;PMS5003;41674;52.290;-1.474;2023-04-15T00:31:24;16;15;
55754;PMS5003;41674;52.290;-1.474;2023-04-15T00:33:54;14;14;
55754;PMS5003;41674;52.290;-1.474;2023-04-15T00:36:23;15;14;
55754;PMS5003;41674;52.290;-1.474;2023-04-15T00:38:52;12;12;
55754;PMS5003;41674;52.290;-1.474;2023-04-15T00:41:21;23;20;
55754;PMS5003;41674;52.290;-1.474;2023-04-15T00:43:51;16;16;
55754;PMS5003;41674;52.290;-1.474;2023-04-15T00:46:20;20;17;
55754;PMS5003;41674;52.290;-1.474;2023-04-15T00:48:50;20;20;
55754;PMS5003;41674;52.290;-1.474;2023-04-15T00:51:20;25;22;
55754;PMS5003;41674;52.290;-1.474;2023-04-15T00:53:48;28;26;
55754;PMS5003;41674;52.290;-1.474;2023-04-15T00:56:18;31;26;
55754;PMS5003;41674;52.290;-1.474;2023-04-15T00:58:47;29;28;
55754;PMS5003;41674;52.290;-1.474;2023-04-15T01:01:18;36;31;
55754;PMS5003;41674;52.290;-1.474;2023-04-15T01:03:47;26;25;
55754;PMS5003;41674;52.290;-1.474;2023-04-15T01:08:46;32;27;
55754;PMS5003;41674;52.290;-1.474;2023-04-15T01:11:16;33;29;
55754;PMS5003;41674;52.290;-1.474;2023-04-15T01:13:45;36;32;
55754;PMS5003;41674;52.290;-1.474;2023-04-15T01:16:14;34;30;
55754;PMS5003;41674;52.290;-1.474;2023-04-15T01:18:44;33;32;
55754;PMS5003;41674;52.290;-1.474;2023-04-15T01:21:14;35;35;
55754;PMS5003;41674;52.290;-1.474;2023-04-15T01:23:44;39;35;
55754;PMS5003;41674;52.290;-1.474;2023-04-15T01:26:13;36;33;
55754;PMS5003;41674;52.290;-1.474;2023-04-15T01:28:47;28;25;
55754;PMS5003;41674;52.290;-1.474;2023-04-15T01:31:12;37;31;
55754;PMS5003;41674;52.290;-1.474;2023-04-15T01:33:42;31;28;
55754;PMS5003;41674;52.290;-1.474;2023-04-15T01:36:11;26;24;
55754;PMS5003;41674;52.290;-1.474;2023-04-15T01:38:40;32;28;
55754;PMS5003;41674;52.290;-1.474;2023-04-15T01:41:10;30;27;
55754;PMS5003;41674;52.290;-1.474;2023-04-15T01:43:39;29;25;
55754;PMS5003;41674;52.290;-1.474;2023-04-15T01:46:08;32;25;
55754;PMS5003;41674;52.290;-1.474;2023-04-15T01:48:37;30;24;
55754;PMS5003;41674;52.290;-1.474;2023-04-15T01:51:06;29;26;
55754;PMS5003;41674;52.290;-1.474;2023-04-15T01:53:36;33;32;
55754;PMS5003;41674;52.290;-1.474;2023-04-15T01:56:05;35;29;
55754;PMS5003;41674;52.290;-1.474;2023-04-15T01:58:35;33;28;
55754;PMS5003;41674;52.290;-1.474;2023-04-15T02:01:04;32;30;
55754;PMS5003;41674;52.290;-1.474;2023-04-15T02:03:33;31;30;
55754;PMS5003;41674;52.290;-1.474;2023-04-15T02:06:03;38;33;
55754;PMS5003;41674;52.290;-1.474;2023-04-15T02:08:32;41;35;
55754;PMS5003;41674;52.290;-1.474;2023-04-15T02:11:01;33;29;
55754;PMS5003;41674;52.290;-1.474;2023-04-15T02:13:31;41;37;
55754;PMS5003;41674;52.290;-1.474;2023-04-15T02:16:01;39;34;
55754;PMS5003;41674;52.290;-1.474;2023-04-15T02:18:29;43;39;
55754;PMS5003;41674;52.290;-1.474;2023-04-15T02:20:59;44;35;
55754;PMS5003;41674;52.290;-1.474;2023-04-15T02:23:28;35;30;
55754;PMS5003;41674;52.290;-1.474;2023-04-15T02:25:57;38;31;
55754;PMS5003;41674;52.290;-1.474;2023-04-15T02:28:28;37;35;
55754;PMS5003;41674;52.290;-1.474;2023-04-15T02:30:56;34;30;
55754;PMS5003;41674;52.290;-1.474;2023-04-15T02:33:25;37;33;
55754;PMS5003;41674;52.290;-1.474;2023-04-15T02:35:55;33;32;
55754;PMS5003;41674;52.290;-1.474;2023-04-15T02:38:24;39;32;
55754;PMS5003;41674;52.290;-1.474;2023-04-15T02:40:54;42;37;
55754;PMS5003;41674;52.290;-1.474;2023-04-15T02:43:24;31;28;
55754;PMS5003;41674;52.290;-1.474;2023-04-15T02:45:52;33;30;
55754;PMS5003;41674;52.290;-1.474;2023-04-15T02:48:22;45;35;
55754;PMS5003;41674;52.290;-1.474;2023-04-15T02:50:52;38;34;
55754;PMS5003;41674;52.290;-1.474;2023-04-15T02:53:27;41;36;
55754;PMS5003;41674;52.290;-1.474;2023-04-15T02:55:51;36;32;
55754;PMS5003;41674;52.290;-1.474;2023-04-15T02:58:21;38;35;
55754;PMS5003;41674;52.290;-1.474;2023-04-15T03:00:50;38;34;
55754;PMS5003;41674;52.290;-1.474;2023-04-15T03:03:20;40;34;
55754;PMS5003;41674;52.290;-1.474;2023-04-15T03:05:50;36;33;
55754;PMS5003;41674;52.290;-1.474;2023-04-15T03:08:20;40;35;
55754;PMS5003;41674;52.290;-1.474;2023-04-15T03:10:48;39;31;
55754;PMS5003;41674;52.290;-1.474;2023-04-15T03:13:17;31;29;
55754;PMS5003;41674;52.290;-1.474;2023-04-15T03:15:47;41;35;
55754;PMS5003;41674;52.290;-1.474;2023-04-15T03:18:21;37;34;
55754;PMS5003;41674;52.290;-1.474;2023-04-15T03:20:46;39;36;
55754;PMS5003;41674;52.290;-1.474;2023-04-15T03:23:15;43;41;
55754;PMS5003;41674;52.290;-1.474;2023-04-15T03:25:44;39;38;
55754;PMS5003;41674;52.290;-1.474;2023-04-15T03:28:18;39;35;
55754;PMS5003;41674;52.290;-1.474;2023-04-15T03:30:43;41;34;
55754;PMS5003;41674;52.290;-1.474;2023-04-15T03:33:12;40;32;
55754;PMS5003;41674;52.290;-1.474;2023-04-15T03:35:41;44;35;
55754;PMS5003;41674;52.290;-1.474;2023-04-15T03:38:11;31;31;
55754;PMS5003;41674;52.290;-1.474;2023-04-15T03:40:40;40;34;
55754;PMS5003;41674;52.290;-1.474;2023-04-15T03:43:10;37;34;
55754;PMS5003;41674;52.290;-1.474;2023-04-15T03:45:40;42;36;
55754;PMS5003;41674;52.290;-1.474;2023-04-15T03:48:09;43;37;
55754;PMS5003;41674;52.290;-1.474;2023-04-15T03:50:40;41;34;
55754;PMS5003;41674;52.290;-1.474;2023-04-15T03:53:08;38;37;
55754;PMS5003;41674;52.290;-1.474;2023-04-15T03:55:38;46;39;
55754;PMS5003;41674;52.290;-1.474;2023-04-15T03:58:07;35;34;
55754;PMS5003;41674;52.290;-1.474;2023-04-15T04:00:36;38;36;
55754;PMS5003;41674;52.290;-1.474;2023-04-15T04:03:06;42;35;
55754;PMS5003;41674;52.290;-1.474;2023-04-15T04:05:35;39;36;
55754;PMS5003;41674;52.290;-1.474;2023-04-15T04:08:04;42;37;
55754;PMS5003;41674;52.290;-1.474;2023-04-15T04:10:33;40;34;
55754;PMS5003;41674;52.290;-1.474;2023-04-15T04:13:03;38;33;
55754;PMS5003;41674;52.290;-1.474;2023-04-15T04:15:32;44;38;
55754;PMS5003;41674;52.290;-1.474;2023-04-15T04:18:02;43;36;
55754;PMS5003;41674;52.290;-1.474;2023-04-15T04:20:32;42;36;
55754;PMS5003;41674;52.290;-1.474;2023-04-15T04:23:01;44;37;
55754;PMS5003;41674;52.290;-1.474;2023-04-15T04:25:31;43;40;
55754;PMS5003;41674;52.290;-1.474;2023-04-15T04:28:00;38;38;
55754;PMS5003;41674;52.290;-1.474;2023-04-15T04:30:30;42;35;
55754;PMS5003;41674;52.290;-1.474;2023-04-15T04:33:00;41;36;
55754;PMS5003;41674;52.290;-1.474;2023-04-15T04:35:29;42;37;
55754;PMS5003;41674;52.290;-1.474;2023-04-15T04:37:59;38;33;
55754;PMS5003;41674;52.290;-1.474;2023-04-15T04:40:29;43;40;
55754;PMS5003;41674;52.290;-1.474;2023-04-15T04:42:58;39;32;
55754;PMS5003;41674;52.290;-1.474;2023-04-15T04:45:27;40;34;
55754;PMS5003;41674;52.290;-1.474;2023-04-15T04:48:02;38;37;
55754;PMS5003;41674;52.290;-1.474;2023-04-15T04:50:26;44;39;
55754;PMS5003;41674;52.290;-1.474;2023-04-15T04:52:56;38;31;
55754;PMS5003;41674;52.290;-1.474;2023-04-15T04:55:25;35;30;
55754;PMS5003;41674;52.290;-1.474;2023-04-15T04:57:55;40;32;
55754;PMS5003;41674;52.290;-1.474;2023-04-15T05:00:25;37;33;
55754;PMS5003;41674;52.290;-1.474;2023-04-15T05:02:54;40;33;
55754;PMS5003;41674;52.290;-1.474;2023-04-15T05:05:23;38;30;
55754;PMS5003;41674;52.290;-1.474;2023-04-15T05:07:52;42;36;
55754;PMS5003;41674;52.290;-1.474;2023-04-15T05:10:22;36;32;
55754;PMS5003;41674;52.290;-1.474;2023-04-15T05:12:51;32;30;
55754;PMS5003;41674;52.290;-1.474;2023-04-15T05:15:21;39;33;
55754;PMS5003;41674;52.290;-1.474;2023-04-15T05:17:50;46;40;
55754;PMS5003;41674;52.290;-1.474;2023-04-15T05:20:19;41;35;
55754;PMS5003;41674;52.290;-1.474;2023-04-15T05:22:48;41;35;
55754;PMS5003;41674;52.290;-1.474;2023-04-15T05:25:18;41;37;
55754;PMS5003;41674;52.290;-1.474;2023-04-15T05:27:47;40;35;
55754;PMS5003;41674;52.290;-1.474;2023-04-15T05:30:17;46;36;
55754;PMS5003;41674;52.290;-1.474;2023-04-15T05:32:46;42;35;
55754;PMS5003;41674;52.290;-1.474;2023-04-15T05:35:16;45;38;
55754;PMS5003;41674;52.290;-1.474;2023-04-15T05:37:45;46;40;
55754;PMS5003;41674;52.290;-1.474;2023-04-15T05:40:15;44;39;
55754;PMS5003;41674;52.290;-1.474;2023-04-15T05:45:14;48;37;
55754;PMS5003;41674;52.290;-1.474;2023-04-15T05:47:43;45;39;
55754;PMS5003;41674;52.290;-1.474;2023-04-15T05:50:13;47;36;
55754;PMS5003;41674;52.290;-1.474;2023-04-15T05:52:43;34;29;
55754;PMS5003;41674;52.290;-1.474;2023-04-15T05:55:12;40;32;
55754;PMS5003;41674;52.290;-1.474;2023-04-15T05:57:42;44;41;
55754;PMS5003;41674;52.290;-1.474;2023-04-15T06:00:11;43;34;
55754;PMS5003;41674;52.290;-1.474;2023-04-15T06:02:41;37;34;
55754;PMS5003;41674;52.290;-1.474;2023-04-15T06:05:10;41;34;
55754;PMS5003;41674;52.290;-1.474;2023-04-15T06:07:39;43;39;
55754;PMS5003;41674;52.290;-1.474;2023-04-15T06:10:09;44;37;
55754;PMS5003;41674;52.290;-1.474;2023-04-15T06:12:37;44;38;
55754;PMS5003;41674;52.290;-1.474;2023-04-15T06:15:07;48;39;
55754;PMS5003;41674;52.290;-1.474;2023-04-15T06:17:36;43;40;
55754;PMS5003;41674;52.290;-1.474;2023-04-15T06:20:06;48;43;
55754;PMS5003;41674;52.290;-1.474;2023-04-15T06:22:36;42;38;
55754;PMS5003;41674;52.290;-1.474;2023-04-15T06:25:05;39;34;
55754;PMS5003;41674;52.290;-1.474;2023-04-15T06:27:34;44;40;
55754;PMS5003;41674;52.290;-1.474;2023-04-15T06:30:04;50;37;
55754;PMS5003;41674;52.290;-1.474;2023-04-15T06:32:33;47;37;
55754;PMS5003;41674;52.290;-1.474;2023-04-15T06:35:02;46;42;
55754;PMS5003;41674;52.290;-1.474;2023-04-15T06:40:00;41;40;
55754;PMS5003;41674;52.290;-1.474;2023-04-15T06:42:30;49;40;
55754;PMS5003;41674;52.290;-1.474;2023-04-15T06:44:59;49;40;
55754;PMS5003;41674;52.290;-1.474;2023-04-15T06:47:28;39;36;
55754;PMS5003;41674;52.290;-1.474;2023-04-15T06:49:58;35;34;
55754;PMS5003;41674;52.290;-1.474;2023-04-15T06:52:27;50;40;
55754;PMS5003;41674;52.290;-1.474;2023-04-15T06:54:57;45;40;
55754;PMS5003;41674;52.290;-1.474;2023-04-15T06:57:26;42;37;
55754;PMS5003;41674;52.290;-1.474;2023-04-15T07:00:02;41;37;
55754;PMS5003;41674;52.290;-1.474;2023-04-15T07:02:26;47;38;
55754;PMS5003;41674;52.290;-1.474;2023-04-15T07:04:56;38;34;
55754;PMS5003;41674;52.290;-1.474;2023-04-15T07:07:29;42;37;
55754;PMS5003;41674;52.290;-1.474;2023-04-15T07:09:54;41;37;
55754;PMS5003;41674;52.290;-1.474;2023-04-15T07:12:23;45;41;
55754;PMS5003;41674;52.290;-1.474;2023-04-15T07:14:53;50;41;
55754;PMS5003;41674;52.290;-1.474;2023-04-15T07:17:22;41;36;
55754;PMS5003;41674;52.290;-1.474;2023-04-15T07:24:55;35;27;
55754;PMS5003;41674;52.290;-1.474;2023-04-15T07:27:20;30;25;
55754;PMS5003;41674;52.290;-1.474;2023-04-15T07:29:48;27;23;
55754;PMS5003;41674;52.290;-1.474;2023-04-15T07:32:23;25;22;
55754;PMS5003;41674;52.290;-1.474;2023-04-15T07:34:48;26;24;
55754;PMS5003;41674;52.290;-1.474;2023-04-15T07:37:18;25;19;
55754;PMS5003;41674;52.290;-1.474;2023-04-15T07:39:46;24;19;
55754;PMS5003;41674;52.290;-1.474;2023-04-15T07:42:16;27;26;
55754;PMS5003;41674;52.290;-1.474;2023-04-15T07:44:45;24;20;
55754;PMS5003;41674;52.290;-1.474;2023-04-15T07:47:15;29;23;
55754;PMS5003;41674;52.290;-1.474;2023-04-15T07:49:44;28;23;
55754;PMS5003;41674;52.290;-1.474;2023-04-15T07:52:13;23;21;
55754;PMS5003;41674;52.290;-1.474;2023-04-15T07:54:43;24;21;
55754;PMS5003;41674;52.290;-1.474;2023-04-15T07:57:13;24;21;
55754;PMS5003;41674;52.290;-1.474;2023-04-15T07:59:47;21;20;
55754;PMS5003;41674;52.290;-1.474;2023-04-15T08:02:12;23;20;
55754;PMS5003;41674;52.290;-1.474;2023-04-15T08:04:40;25;24;
55754;PMS5003;41674;52.290;-1.474;2023-04-15T08:07:10;26;20;
55754;PMS5003;41674;52.290;-1.474;2023-04-15T08:09:40;27;22;
55754;PMS5003;41674;52.290;-1.474;2023-04-15T08:12:09;25;21;
55754;PMS5003;41674;52.290;-1.474;2023-04-15T08:14:38;25;24;
55754;PMS5003;41674;52.290;-1.474;2023-04-15T08:17:07;19;19;
55754;PMS5003;41674;52.290;-1.474;2023-04-15T08:19:37;24;21;
55754;PMS5003;41674;52.290;-1.474;2023-04-15T08:22:07;22;20;
55754;PMS5003;41674;52.290;-1.474;2023-04-15T08:24:36;30;24;
55754;PMS5003;41674;52.290;-1.474;2023-04-15T08:27:05;31;27;
55754;PMS5003;41674;52.290;-1.474;2023-04-15T08:29:34;33;26;
55754;PMS5003;41674;52.290;-1.474;2023-04-15T08:32:04;38;32;
55754;PMS5003;41674;52.290;-1.474;2023-04-15T08:34:33;32;28;
55754;PMS5003;41674;52.290;-1.474;2023-04-15T08:37:02;32;26;
55754;PMS5003;41674;52.290;-1.474;2023-04-15T08:39:32;28;24;
55754;PMS5003;41674;52.290;-1.474;2023-04-15T08:42:01;31;27;
55754;PMS5003;41674;52.290;-1.474;2023-04-15T08:44:32;30;27;
55754;PMS5003;41674;52.290;-1.474;2023-04-15T08:47:00;28;27;
55754;PMS5003;41674;52.290;-1.474;2023-04-15T08:49:29;26;23;
55754;PMS5003;41674;52.290;-1.474;2023-04-15T08:51:58;27;23;
55754;PMS5003;41674;52.290;-1.474;2023-04-15T08:54:27;28;25;
55754;PMS5003;41674;52.290;-1.474;2023-04-15T08:56:56;29;25;
55754;PMS5003;41674;52.290;-1.474;2023-04-15T08:59:25;25;21;
55754;PMS5003;41674;52.290;-1.474;2023-04-15T09:01:55;22;21;
55754;PMS5003;41674;52.290;-1.474;2023-04-15T09:04:23;23;18;
55754;PMS5003;41674;52.290;-1.474;2023-04-15T09:06:53;24;21;
55754;PMS5003;41674;52.290;-1.474;2023-04-15T09:09:22;28;26;
55754;PMS5003;41674;52.290;-1.474;2023-04-15T09:11:51;31;25;
55754;PMS5003;41674;52.290;-1.474;2023-04-15T09:14:21;29;26;
55754;PMS5003;41674;52.290;-1.474;2023-04-15T09:16:55;26;24;
55754;PMS5003;41674;52.290;-1.474;2023-04-15T09:19:21;24;22;
55754;PMS5003;41674;52.290;-1.474;2023-04-15T09:21:50;21;20;
55754;PMS5003;41674;52.290;-1.474;2023-04-15T09:24:19;28;23;
55754;PMS5003;41674;52.290;-1.474;2023-04-15T09:26:51;24;23;
55754;PMS5003;41674;52.290;-1.474;2023-04-15T09:29:17;24;22;
55754;PMS5003;41674;52.290;-1.474;2023-04-15T09:31:47;23;22;
55754;PMS5003;41674;52.290;-1.474;2023-04-15T09:34:17;22;22;
55754;PMS5003;41674;52.290;-1.474;2023-04-15T09:36:52;28;25;
55754;PMS5003;41674;52.290;-1.474;2023-04-15T09:39:16;26;23;
55754;PMS5003;41674;52.290;-1.474;2023-04-15T09:41:45;24;24;
55754;PMS5003;41674;52.290;-1.474;2023-04-15T09:44:21;28;26;
55754;PMS5003;41674;52.290;-1.474;2023-04-15T09:49:13;27;26;
55754;PMS5003;41674;52.290;-1.474;2023-04-15T09:51:43;21;20;
55754;PMS5003;41674;52.290;-1.474;2023-04-15T09:54:12;28;24;
55754;PMS5003;41674;52.290;-1.474;2023-04-15T09:56:41;27;24;
55754;PMS5003;41674;52.290;-1.474;2023-04-15T09:59:10;30;23;
55754;PMS5003;41674;52.290;-1.474;2023-04-15T10:01:45;26;24;
55754;PMS5003;41674;52.290;-1.474;2023-04-15T10:04:09;29;27;
55754;PMS5003;41674;52.290;-1.474;2023-04-15T10:06:38;24;23;
55754;PMS5003;41674;52.290;-1.474;2023-04-15T10:11:47;25;21;
55754;PMS5003;41674;52.290;-1.474;2023-04-15T10:14:10;23;22;
55754;PMS5003;41674;52.290;-1.474;2023-04-15T10:19:07;26;21;
55754;PMS5003;41674;52.290;-1.474;2023-04-15T10:21:37;24;22;
55754;PMS5003;41674;52.290;-1.474;2023-04-15T10:24:11;24;24;
55754;PMS5003;41674;52.290;-1.474;2023-04-15T10:29:05;26;25;
55754;PMS5003;41674;52.290;-1.474;2023-04-15T10:31:34;27;24;
55754;PMS5003;41674;52.290;-1.474;2023-04-15T10:34:03;20;18;
55754;PMS5003;41674;52.290;-1.474;2023-04-15T10:36:33;20;19;
55754;PMS5003;41674;52.290;-1.474;2023-04-15T10:39:02;16;16;
55754;PMS5003;41674;52.290;-1.474;2023-04-15T10:41:31;18;14;
55754;PMS5003;41674;52.290;-1.474;2023-04-15T10:44:02;21;20;
55754;PMS5003;41674;52.290;-1.474;2023-04-15T10:48:58;21;19;
55754;PMS5003;41674;52.290;-1.474;2023-04-15T10:51:29;19;19;
55754;PMS5003;41674;52.290;-1.474;2023-04-15T10:53:58;24;20;
55754;PMS5003;41674;52.290;-1.474;2023-04-15T10:56:27;19;17;
55754;PMS5003;41674;52.290;-1.474;2023-04-15T10:58:57;19;19;
55754;PMS5003;41674;52.290;-1.474;2023-04-15T11:03:55;27;21;
55754;PMS5003;41674;52.290;-1.474;2023-04-15T11:06:25;29;28;
55754;PMS5003;41674;52.290;-1.474;2023-04-15T11:08:54;23;23;
55754;PMS5003;41674;52.290;-1.474;2023-04-15T11:11:23;23;22;
55754;PMS5003;41674;52.290;-1.474;2023-04-15T11:13:53;20;19;
55754;PMS5003;41674;52.290;-1.474;2023-04-15T11:16:22;18;17;
55754;PMS5003;41674;52.290;-1.474;2023-04-15T11:18:52;17;15;
55754;PMS5003;41674;52.290;-1.474;2023-04-15T11:21:23;18;16;
55754;PMS5003;41674;52.290;-1.474;2023-04-15T11:23:50;18;16;
55754;PMS5003;41674;52.290;-1.474;2023-04-15T11:26:24;22;21;
55754;PMS5003;41674;52.290;-1.474;2023-04-15T11:28:49;21;20;
55754;PMS5003;41674;52.290;-1.474;2023-04-15T11:31:19;25;23;
55754;PMS5003;41674;52.290;-1.474;2023-04-15T11:33:53;20;19;
55754;PMS5003;41674;52.290;-1.474;2023-04-15T11:36:18;19;16;
55754;PMS5003;41674;52.290;-1.474;2023-04-15T11:38:47;18;17;
55754;PMS5003;41674;52.290;-1.474;2023-04-15T11:41:19;18;16;
55754;PMS5003;41674;52.290;-1.474;2023-04-15T11:43:46;15;14;
55754;PMS5003;41674;52.290;-1.474;2023-04-15T11:46:16;14;14;
55754;PMS5003;41674;52.290;-1.474;2023-04-15T11:48:44;16;16;
55754;PMS5003;41674;52.290;-1.474;2023-04-15T11:51:14;15;15;
55754;PMS5003;41674;52.290;-1.474;2023-04-15T11:53:43;20;18;
55754;PMS5003;41674;52.290;-1.474;2023-04-15T11:56:16;14;14;
55754;PMS5003;41674;52.290;-1.474;2023-04-15T11:58:43;20;20;
55754;PMS5003;41674;52.290;-1.474;2023-04-15T12:01:11;19;18;
55754;PMS5003;41674;52.290;-1.474;2023-04-15T12:03:41;19;17;
55754;PMS5003;41674;52.290;-1.474;2023-04-15T12:06:11;16;15;
55754;PMS5003;41674;52.290;-1.474;2023-04-15T12:08:48;18;15;
55754;PMS5003;41674;52.290;-1.474;2023-04-15T12:11:09;20;20;
55754;PMS5003;41674;52.290;-1.474;2023-04-15T12:13:42;20;19;
55754;PMS5003;41674;52.290;-1.474;2023-04-15T12:16:08;20;19;
55754;PMS5003;41674;52.290;-1.474;2023-04-15T12:18:38;18;16;
55754;PMS5003;41674;52.290;-1.474;2023-04-15T12:21:08;20;19;
55754;PMS5003;41674;52.290;-1.474;2023-04-15T12:23:37;17;17;
55754;PMS5003;41674;52.290;-1.474;2023-04-15T12:26:06;17;15;
55754;PMS5003;41674;52.290;-1.474;2023-04-15T12:28:35;22;21;
55754;PMS5003;41674;52.290;-1.474;2023-04-15T12:31:06;18;17;
55754;PMS5003;41674;52.290;-1.474;2023-04-15T12:33:34;17;17;
55754;PMS5003;41674;52.290;-1.474;2023-04-15T12:36:03;24;24;
55754;PMS5003;41674;52.290;-1.474;2023-04-15T12:38:32;23;23;
55754;PMS5003;41674;52.290;-1.474;2023-04-15T12:41:02;24;20;
55754;PMS5003;41674;52.290;-1.474;2023-04-15T12:43:31;21;20;
55754;PMS5003;41674;52.290;-1.474;2023-04-15T12:46:01;21;21;
55754;PMS5003;41674;52.290;-1.474;2023-04-15T12:48:30;18;18;
55754;PMS5003;41674;52.290;-1.474;2023-04-15T12:51:00;17;16;
55754;PMS5003;41674;52.290;-1.474;2023-04-15T12:53:30;20;18;
55754;PMS5003;41674;52.290;-1.474;2023-04-15T12:55:59;13;13;
55754;PMS5003;41674;52.290;-1.474;2023-04-15T12:58:29;17;17;
55754;PMS5003;41674;52.290;-1.474;2023-04-15T13:00:58;19;17;
55754;PMS5003;41674;52.290;-1.474;2023-04-15T13:03:28;13;13;
55754;PMS5003;41674;52.290;-1.474;2023-04-15T13:05:57;14;14;
55754;PMS5003;41674;52.290;-1.474;2023-04-15T13:08:27;13;13;
55754;PMS5003;41674;52.290;-1.474;2023-04-15T13:10:56;13;12;
55754;PMS5003;41674;52.290;-1.474;2023-04-15T13:13:26;14;13;
55754;PMS5003;41674;52.290;-1.474;2023-04-15T13:18:25;15;13;
55754;PMS5003;41674;52.290;-1.474;2023-04-15T13:20:54;14;14;
55754;PMS5003;41674;52.290;-1.474;2023-04-15T13:23:24;10;10;
55754;PMS5003;41674;52.290;-1.474;2023-04-15T13:25:53;11;11;
55754;PMS5003;41674;52.290;-1.474;2023-04-15T13:28:23;12;11;
55754;PMS5003;41674;52.290;-1.474;2023-04-15T13:30:53;16;14;
55754;PMS5003;41674;52.290;-1.474;2023-04-15T13:33:22;13;13;
55754;PMS5003;41674;52.290;-1.474;2023-04-15T13:35:52;13;12;
55754;PMS5003;41674;52.290;-1.474;2023-04-15T13:38:23;12;12;
55754;PMS5003;41674;52.290;-1.474;2023-04-15T13:40:51;11;11;
55754;PMS5003;41674;52.290;-1.474;2023-04-15T13:43:21;12;12;
55754;PMS5003;41674;52.290;-1.474;2023-04-15T13:45:50;10;10;
55754;PMS5003;41674;52.290;-1.474;2023-04-15T13:48:20;12;11;
55754;PMS5003;41674;52.290;-1.474;2023-04-15T13:50:49;8;8;
55754;PMS5003;41674;52.290;-1.474;2023-04-15T13:53:19;11;11;
55754;PMS5003;41674;52.290;-1.474;2023-04-15T13:55:48;11;10;
55754;PMS5003;41674;52.290;-1.474;2023-04-15T13:58:18;10;10;
55754;PMS5003;41674;52.290;-1.474;2023-04-15T14:00:47;14;14;
55754;PMS5003;41674;52.290;-1.474;2023-04-15T14:03:17;13;11;
55754;PMS5003;41674;52.290;-1.474;2023-04-15T14:05:46;12;12;
55754;PMS5003;41674;52.290;-1.474;2023-04-15T14:08:16;11;10;
55754;PMS5003;41674;52.290;-1.474;2023-04-15T14:10:45;12;10;
55754;PMS5003;41674;52.290;-1.474;2023-04-15T14:13:15;14;13;
55754;PMS5003;41674;52.290;-1.474;2023-04-15T14:15:46;12;12;
55754;PMS5003;41674;52.290;-1.474;2023-04-15T14:18:14;11;11;
55754;PMS5003;41674;52.290;-1.474;2023-04-15T14:20:43;9;9;
55754;PMS5003;41674;52.290;-1.474;2023-04-15T14:23:13;10;9;
55754;PMS5003;41674;52.290;-1.474;2023-04-15T14:25:43;9;9;
55754;PMS5003;41674;52.290;-1.474;2023-04-15T14:28:12;8;8;
55754;PMS5003;41674;52.290;-1.474;2023-04-15T14:30:42;13;12;
55754;PMS5003;41674;52.290;-1.474;2023-04-15T14:33:11;9;8;
55754;PMS5003;41674;52.290;-1.474;2023-04-15T14:35:41;13;12;
55754;PMS5003;41674;52.290;-1.474;2023-04-15T14:38:10;9;9;
55754;PMS5003;41674;52.290;-1.474;2023-04-15T14:40:40;10;10;
55754;PMS5003;41674;52.290;-1.474;2023-04-15T14:43:10;11;11;
55754;PMS5003;41674;52.290;-1.474;2023-04-15T14:45:39;10;9;
55754;PMS5003;41674;52.290;-1.474;2023-04-15T14:48:09;7;7;
55754;PMS5003;41674;52.290;-1.474;2023-04-15T14:50:39;9;8;
55754;PMS5003;41674;52.290;-1.474;2023-04-15T14:53:08;12;11;
55754;PMS5003;41674;52.290;-1.474;2023-04-15T14:55:37;10;9;
55754;PMS5003;41674;52.290;-1.474;2023-04-15T14:58:07;12;10;
55754;PMS5003;41674;52.290;-1.474;2023-04-15T15:00:37;12;10;
55754;PMS5003;41674;52.290;-1.474;2023-04-15T15:03:06;8;8;
55754;PMS5003;41674;52.290;-1.474;2023-04-15T15:05:35;9;9;
55754;PMS5003;41674;52.290;-1.474;2023-04-15T15:08:05;11;10;
55754;PMS5003;41674;52.290;-1.474;2023-04-15T15:10:34;9;9;
55754;PMS5003;41674;52.290;-1.474;2023-04-15T15:13:04;10;10;
55754;PMS5003;41674;52.290;-1.474;2023-04-15T15:15:33;9;9;
55754;PMS5003;41674;52.290;-1.474;2023-04-15T15:18:03;10;9;
55754;PMS5003;41674;52.290;-1.474;2023-04-15T15:20:32;11;10;
55754;PMS5003;41674;52.290;-1.474;2023-04-15T15:23:02;10;10;
55754;PMS5003;41674;52.290;-1.474;2023-04-15T15:25:31;9;9;
55754;PMS5003;41674;52.290;-1.474;2023-04-15T15:28:01;10;9;
55754;PMS5003;41674;52.290;-1.474;2023-04-15T15:30:30;13;10;
55754;PMS5003;41674;52.290;-1.474;2023-04-15T15:33:00;10;9;
55754;PMS5003;41674;52.290;-1.474;2023-04-15T15:35:30;11;10;
55754;PMS5003;41674;52.290;-1.474;2023-04-15T15:37:59;11;11;
55754;PMS5003;41674;52.290;-1.474;2023-04-15T15:40:29;10;9;
55754;PMS5003;41674;52.290;-1.474;2023-04-15T15:42:58;11;9;
55754;PMS5003;41674;52.290;-1.474;2023-04-15T15:45:28;10;10;
55754;PMS5003;41674;52.290;-1.474;2023-04-15T15:47:58;10;9;
55754;PMS5003;41674;52.290;-1.474;2023-04-15T15:50:27;10;9;
55754;PMS5003;41674;52.290;-1.474;2023-04-15T15:52:56;9;9;
55754;PMS5003;41674;52.290;-1.474;2023-04-15T15:55:26;8;8;
55754;PMS5003;41674;52.290;-1.474;2023-04-15T15:57:55;7;7;
55754;PMS5003;41674;52.290;-1.474;2023-04-15T16:00:25;9;9;
55754;PMS5003;41674;52.290;-1.474;2023-04-15T16:02:54;10;10;
55754;PMS5003;41674;52.290;-1.474;2023-04-15T16:05:24;10;10;
55754;PMS5003;41674;52.290;-1.474;2023-04-15T16:07:53;9;8;
55754;PMS5003;41674;52.290;-1.474;2023-04-15T16:10:23;11;11;
55754;PMS5003;41674;52.290;-1.474;2023-04-15T16:12:52;8;8;
55754;PMS5003;41674;52.290;-1.474;2023-04-15T16:15:22;10;10;
55754;PMS5003;41674;52.290;-1.474;2023-04-15T16:17:51;10;9;
55754;PMS5003;41674;52.290;-1.474;2023-04-15T16:20:21;12;12;
55754;PMS5003;41674;52.290;-1.474;2023-04-15T16:22:50;10;9;
55754;PMS5003;41674;52.290;-1.474;2023-04-15T16:25:20;12;10;
55754;PMS5003;41674;52.290;-1.474;2023-04-15T16:27:49;9;9;
55754;PMS5003;41674;52.290;-1.474;2023-04-15T16:30:19;10;10;
55754;PMS5003;41674;52.290;-1.474;2023-04-15T16:32:48;10;10;
55754;PMS5003;41674;52.290;-1.474;2023-04-15T16:35:18;11;11;
55754;PMS5003;41674;52.290;-1.474;2023-04-15T16:37:47;10;10;
55754;PMS5003;41674;52.290;-1.474;2023-04-15T16:40:17;12;12;
55754;PMS5003;41674;52.290;-1.474;2023-04-15T16:42:47;11;11;
55754;PMS5003;41674;52.290;-1.474;2023-04-15T16:45:16;12;12;
55754;PMS5003;41674;52.290;-1.474;2023-04-15T16:47:46;13;13;